Time;durP1;ratioP1;P1;durP2;ratioP2;P2;SDS_P1;SDS_P2;PMS_P1;PMS_P2;Temp;Humidity;BMP_temperature;BMP_pressure;BME280_temperature;BME280_humidity;BME280_pressure;Samples;Min_cycle;Max_cycle;Signal;HPM_P1;HPM_P2
2023/03/07 00:02:21;;;;;;;69.37;32.40;;;;;;;-144.73;100.00;54444.66;4987709;28;20093;-73
2023/03/07 00:04:46;;;;;;;76.93;33.33;;;;;;;-144.73;100.00;54473.38;4990162;28;20502;-73
2023/03/07 00:07:12;;;;;;;74.07;33.77;;;;;;;-144.73;100.00;54465.16;5000799;28;20368;-74
2023/03/07 00:09:38;;;;;;;75.73;32.73;;;;;;;-144.73;100.00;54465.16;4983390;28;20034;-75
2023/03/07 00:12:03;;;;;;;77.60;34.73;;;;;;;-144.73;100.00;54479.53;4991734;28;20042;-72
2023/03/07 00:14:29;;;;;;;76.00;33.90;;;;;;;-144.73;100.00;54479.53;5009717;28;20046;-72
2023/03/07 00:16:54;;;;;;;80.27;33.83;;;;;;;-144.73;100.00;54493.91;4978406;28;20030;-72
2023/03/07 00:19:19;;;;;;;83.80;40.70;;;;;;;-144.73;100.00;54469.28;4997026;28;20042;-74
2023/03/07 00:21:45;;;;;;;84.30;38.00;;;;;;;-144.73;100.00;54473.38;5010902;28;20403;-72
2023/03/07 00:24:10;;;;;;;81.63;35.13;;;;;;;-144.73;100.00;54444.66;5007782;28;20075;-74
2023/03/07 00:26:39;;;;;;;106.50;46.50;;;;;;;-144.73;100.00;54489.81;5011703;28;20038;-74
2023/03/07 00:29:06;;;;;;;99.53;40.50;;;;;;;-144.73;100.00;54477.47;5010240;28;20447;-75
2023/03/07 00:31:33;;;;;;;99.87;42.43;;;;;;;-144.73;100.00;54489.81;5001904;28;20052;-72
2023/03/07 00:33:58;;;;;;;101.27;47.63;;;;;;;-144.73;100.00;54452.84;4993974;28;20069;-74
2023/03/07 00:36:24;;;;;;;105.60;48.13;;;;;;;-144.73;100.00;54477.47;5001985;28;20022;-74
2023/03/07 00:38:51;;;;;;;108.80;46.47;;;;;;;-144.73;100.00;54473.38;5003287;28;20034;-72
2023/03/07 00:41:19;;;;;;;122.77;50.17;;;;;;;-144.73;100.00;54469.28;4985303;28;20045;-74
2023/03/07 00:43:45;;;;;;;106.40;44.00;;;;;;;-144.73;100.00;54465.16;4991295;28;20037;-72
2023/03/07 00:46:15;;;;;;;124.70;51.03;;;;;;;-144.73;100.00;54473.38;4987900;28;20108;-74
2023/03/07 00:48:41;;;;;;;122.83;50.50;;;;;;;-144.73;100.00;54465.16;4992107;28;20037;-75
2023/03/07 00:51:09;;;;;;;109.43;50.07;;;;;;;-144.73;100.00;54489.81;4996739;28;20080;-74
2023/03/07 00:53:35;;;;;;;135.93;50.40;;;;;;;-144.73;100.00;54469.28;4987436;28;20053;-75
2023/03/07 00:56:08;;;;;;;122.50;49.57;;;;;;;-144.73;100.00;54436.44;5003558;28;20030;-73
2023/03/07 00:58:35;;;;;;;113.13;50.37;;;;;;;-144.73;100.00;54493.91;4980080;28;20030;-75
2023/03/07 01:01:02;;;;;;;124.47;50.97;;;;;;;-144.73;100.00;54498.00;4993625;28;20084;-75
2023/03/07 01:03:27;;;;;;;130.17;53.57;;;;;;;-144.73;100.00;54465.16;5002541;28;20033;-75
2023/03/07 01:05:53;;;;;;;134.80;56.17;;;;;;;-144.73;100.00;54469.28;5010467;28;20105;-75
2023/03/07 01:08:19;;;;;;;122.93;53.83;;;;;;;-144.73;100.00;54448.75;4992803;28;20049;-75
2023/03/07 01:10:47;;;;;;;136.73;55.47;;;;;;;-144.73;100.00;54493.91;5000993;28;20033;-75
2023/03/07 01:13:14;;;;;;;128.33;57.63;;;;;;;-144.73;100.00;54444.66;5010230;28;20069;-75
2023/03/07 01:15:39;;;;;;;139.90;53.03;;;;;;;-144.73;100.00;54493.91;5010336;28;20076;-73
2023/03/07 01:18:06;;;;;;;120.50;50.70;;;;;;;-144.73;100.00;54465.16;4979951;28;20035;-73
2023/03/07 01:20:32;;;;;;;135.73;55.77;;;;;;;-144.73;100.00;54469.28;4982136;28;20030;-75
2023/03/07 01:22:58;;;;;;;143.13;54.87;;;;;;;-144.73;100.00;54456.97;4998080;28;20411;-74
2023/03/07 01:25:23;;;;;;;131.57;55.00;;;;;;;-144.73;100.00;54469.28;4982339;28;20018;-74
2023/03/07 01:27:51;;;;;;;144.70;55.33;;;;;;;-144.73;100.00;54473.38;4984468;28;20053;-73
2023/03/07 01:30:16;;;;;;;132.73;55.87;;;;;;;-144.73;100.00;54444.66;5010467;28;20033;-74
2023/03/07 01:32:42;;;;;;;138.17;60.67;;;;;;;-144.73;100.00;54485.69;4992501;28;20026;-74
2023/03/07 01:35:08;;;;;;;132.23;55.77;;;;;;;-144.73;100.00;54481.59;4999762;28;20022;-73
2023/03/07 01:37:33;;;;;;;127.40;58.87;;;;;;;-144.73;100.00;54514.44;5001099;28;20025;-73
2023/03/07 01:39:58;;;;;;;140.53;55.47;;;;;;;-144.73;100.00;54473.38;4980775;28;20066;-74
2023/03/07 01:42:29;;;;;;;123.47;51.97;;;;;;;-144.73;100.00;54481.59;5004429;28;20084;-74
2023/03/07 01:45:32;;;;;;;131.13;59.67;;;;;;;-144.73;100.00;54456.97;4991726;28;20034;-73
2023/03/07 01:47:58;;;;;;;121.63;54.43;;;;;;;-144.73;100.00;54485.69;5008007;28;20038;-73
2023/03/07 01:50:23;;;;;;;120.90;53.83;;;;;;;-144.73;100.00;54456.97;5002145;28;20030;-73
2023/03/07 01:52:56;;;;;;;138.73;55.33;;;;;;;-144.73;100.00;54452.84;5000131;28;20113;-74
2023/03/07 01:55:30;;;;;;;142.07;58.60;;;;;;;-144.73;100.00;54477.47;5008274;28;20022;-73
2023/03/07 01:57:59;;;;;;;120.70;50.00;;;;;;;-144.73;100.00;54514.44;4992400;28;20050;-73
2023/03/07 02:00:28;;;;;;;122.30;50.90;;;;;;;-144.73;100.00;54465.16;4984720;28;20026;-73
2023/03/07 02:03:05;;;;;;;136.00;56.60;;;;;;;-144.73;100.00;54485.69;4998673;28;20034;-73
2023/03/07 02:05:36;;;;;;;122.70;54.60;;;;;;;-144.73;100.00;54459.00;4988325;28;20113;-73
2023/03/07 02:08:03;;;;;;;128.50;52.58;;;;;;;-144.73;100.00;54522.63;4984517;28;20034;-73
2023/03/07 02:10:30;;;;;;;131.77;60.13;;;;;;;-144.73;100.00;54502.13;5010191;28;20037;-73
2023/03/07 02:12:55;;;;;;;126.10;55.90;;;;;;;-144.73;100.00;54461.06;5007570;28;20145;-73
2023/03/07 02:15:21;;;;;;;114.70;49.00;;;;;;;-144.73;100.00;54461.06;4997565;28;20485;-73
2023/03/07 02:17:46;;;;;;;144.20;60.93;;;;;;;-144.73;100.00;54493.91;4998569;28;20046;-73
2023/03/07 02:20:38;;;;;;;122.63;49.07;;;;;;;-144.73;100.00;54452.84;4977776;28;20018;-74
2023/03/07 02:23:06;;;;;;;105.75;42.95;;;;;;;-144.73;100.00;54477.47;4998059;28;20042;-73
2023/03/07 02:25:48;;;;;;;118.07;49.60;;;;;;;-144.73;100.00;54493.91;4982027;28;20021;-73
2023/03/07 02:28:16;;;;;;;107.47;47.63;;;;;;;-144.73;100.00;54452.84;4985505;28;20029;-73
2023/03/07 02:30:55;;;;;;;99.13;43.83;;;;;;;-144.73;100.00;54502.13;4989183;28;20044;-73
2023/03/07 02:33:23;;;;;;;105.00;48.47;;;;;;;-144.73;100.00;54428.22;4983941;28;20513;-73
2023/03/07 02:36:00;;;;;;;96.53;44.10;;;;;;;-144.73;100.00;54483.66;4993745;28;20129;-73
2023/03/07 02:38:26;;;;;;;95.73;43.83;;;;;;;-144.73;100.00;54456.97;5005106;28;20030;-73
2023/03/07 02:40:54;;;;;;;102.33;47.23;;;;;;;-144.73;100.00;54461.06;4976835;28;20018;-74
2023/03/07 02:43:20;;;;;;;96.53;51.10;;;;;;;-144.73;100.00;54481.59;5002474;28;20030;-73
2023/03/07 02:45:45;;;;;;;95.03;45.50;;;;;;;-144.73;100.00;54477.47;4984822;28;20040;-74
2023/03/07 02:48:11;;;;;;;105.50;47.70;;;;;;;-144.73;100.00;54477.47;4995008;28;20057;-74
2023/03/07 02:50:36;;;;;;;90.37;44.60;;;;;;;-144.73;100.00;54485.69;4995257;28;20045;-73
2023/03/07 02:53:02;;;;;;;82.40;38.53;;;;;;;-144.73;100.00;54489.81;5000815;28;20386;-73
2023/03/07 02:55:28;;;;;;;91.60;44.60;;;;;;;-144.73;100.00;54547.28;4989954;28;20022;-73
2023/03/07 02:57:53;;;;;;;79.00;39.63;;;;;;;-144.73;100.00;54454.91;4977276;28;20172;-74
2023/03/07 03:00:19;;;;;;;80.53;39.80;;;;;;;-144.73;100.00;54512.38;4983256;28;20041;-73
2023/03/07 03:02:45;;;;;;;75.30;36.47;;;;;;;-144.73;100.00;54510.31;5001643;28;20033;-74
2023/03/07 03:05:10;;;;;;;78.20;37.10;;;;;;;-144.73;100.00;54465.16;4995996;28;20077;-74
2023/03/07 03:07:37;;;;;;;80.60;37.70;;;;;;;-144.73;100.00;54493.91;4983449;28;20157;-74
2023/03/07 03:10:03;;;;;;;87.50;39.87;;;;;;;-144.73;100.00;54506.22;4988814;28;20045;-74
2023/03/07 03:12:29;;;;;;;77.10;36.97;;;;;;;-144.73;100.00;54485.69;4993043;28;20029;-75
2023/03/07 03:14:54;;;;;;;78.13;41.13;;;;;;;-144.73;100.00;54481.59;4985504;28;20034;-74
2023/03/07 03:17:20;;;;;;;74.77;36.50;;;;;;;-144.73;100.00;54479.53;4994840;28;20034;-74
2023/03/07 03:19:45;;;;;;;71.30;32.57;;;;;;;-144.73;100.00;54436.44;4992311;28;20026;-74
2023/03/07 03:22:10;;;;;;;80.47;35.23;;;;;;;-144.73;100.00;54473.38;4993541;28;20048;-74
2023/03/07 03:24:40;;;;;;;80.23;40.43;;;;;;;-144.73;100.00;54493.91;4984122;28;20033;-74
2023/03/07 03:27:06;;;;;;;81.07;41.03;;;;;;;-144.73;100.00;54493.91;4983231;28;20042;-74
2023/03/07 03:29:31;;;;;;;77.13;39.03;;;;;;;-144.73;100.00;54493.91;4993933;28;20060;-74
2023/03/07 03:31:57;;;;;;;69.83;37.23;;;;;;;-144.73;100.00;54502.13;5001547;28;20033;-74
2023/03/07 03:34:22;;;;;;;75.33;39.60;;;;;;;-144.73;100.00;54485.69;4999784;28;20046;-74
2023/03/07 03:36:48;;;;;;;72.80;36.07;;;;;;;-144.73;100.00;54477.47;4983084;28;20033;-74
2023/03/07 03:39:13;;;;;;;73.83;36.70;;;;;;;-144.73;100.00;54506.22;4982970;28;20110;-74
2023/03/07 03:41:39;;;;;;;72.20;37.87;;;;;;;-144.73;100.00;54485.69;4982079;28;20041;-73
2023/03/07 03:44:04;;;;;;;72.53;35.17;;;;;;;-144.73;100.00;54518.53;5009998;28;20033;-73
2023/03/07 03:46:30;;;;;;;67.30;33.57;;;;;;;-144.73;100.00;54481.59;5003020;23;20190;-75
2023/03/07 03:48:55;;;;;;;60.07;32.60;;;;;;;-144.73;100.00;54473.38;4971673;28;20043;-74
2023/03/07 03:51:23;;;;;;;68.83;35.53;;;;;;;-144.73;100.00;54461.06;4971920;28;20035;-73
2023/03/07 03:53:49;;;;;;;72.07;33.60;;;;;;;-144.73;100.00;54469.28;4970576;28;20038;-74
2023/03/07 03:56:17;;;;;;;66.03;32.10;;;;;;;-144.73;100.00;54506.22;4971985;28;20026;-74
2023/03/07 03:58:45;;;;;;;62.90;29.90;;;;;;;-144.73;100.00;54473.38;4973606;28;20049;-73
2023/03/07 04:01:11;;;;;;;70.63;32.73;;;;;;;-144.73;100.00;54510.31;4991688;28;20037;-74
2023/03/07 04:03:42;;;;;;;55.60;30.40;;;;;;;-144.73;100.00;54491.84;4978538;28;20034;-74
2023/03/07 04:06:10;;;;;;;60.67;29.07;;;;;;;-144.73;100.00;54514.44;4974326;28;20018;-74
2023/03/07 04:08:36;;;;;;;67.40;31.67;;;;;;;-144.73;100.00;54452.84;4974047;28;20037;-75
2023/03/07 04:11:01;;;;;;;53.30;30.33;;;;;;;-144.73;100.00;54456.97;4969427;28;20037;-75
2023/03/07 04:13:27;;;;;;;53.10;26.27;;;;;;;-144.73;100.00;54489.81;4970814;28;20043;-77
2023/03/07 04:16:00;;;;;;;63.80;29.60;;;;;;;-144.73;100.00;54477.47;4975649;28;20018;-75
2023/03/07 04:19:23;;;;;;;57.73;28.20;;;;;;;-144.73;100.00;54485.69;4963352;28;20058;-75
2023/03/07 04:22:49;;;;;;;50.43;24.57;;;;;;;-144.73;100.00;54475.44;4962289;28;20056;-74
2023/03/07 04:25:56;;;;;;;43.40;23.13;;;;;;;-144.73;100.00;54452.84;4984156;28;20042;-76
2023/03/07 04:29:08;;;;;;;44.63;20.43;;;;;;;-144.73;100.00;54473.38;4989239;28;20049;-75
2023/03/07 04:31:49;;;;;;;39.37;18.87;;;;;;;-144.73;100.00;54483.66;4993499;28;20038;-75
2023/03/07 04:34:20;;;;;;;42.53;19.33;;;;;;;-144.73;100.00;54510.31;4991961;28;20079;-75
2023/03/07 04:36:48;;;;;;;44.90;18.43;;;;;;;-144.73;100.00;54456.97;4976442;28;20066;-74
2023/03/07 04:39:16;;;;;;;36.57;16.57;;;;;;;-144.73;100.00;54502.13;4966724;28;20046;-75
2023/03/07 04:41:45;;;;;;;31.90;16.60;;;;;;;-144.73;100.00;54485.69;4975140;28;20398;-75
2023/03/07 04:44:13;;;;;;;37.27;17.47;;;;;;;-144.73;100.00;54469.28;4981638;28;20050;-75
2023/03/07 04:46:41;;;;;;;43.00;17.17;;;;;;;-144.73;100.00;54489.81;4979692;28;20026;-75
2023/03/07 04:49:10;;;;;;;29.27;15.03;;;;;;;-144.73;100.00;54518.53;4973874;28;20602;-74
2023/03/07 04:51:38;;;;;;;34.00;13.90;;;;;;;-144.73;100.00;54481.59;4975484;28;20041;-74
2023/03/07 04:54:03;;;;;;;30.80;13.00;;;;;;;-144.73;100.00;54485.69;4970984;28;20046;-75
2023/03/07 04:56:29;;;;;;;39.33;14.40;;;;;;;-144.73;100.00;54475.44;4992627;28;20022;-74
2023/03/07 04:58:55;;;;;;;32.10;12.77;;;;;;;-144.73;99.73;54493.91;4974544;28;20046;-74
2023/03/07 05:01:22;;;;;;;28.07;10.63;;;;;;;-144.73;100.00;54493.91;4975327;28;20037;-74
2023/03/07 05:03:49;;;;;;;30.10;11.43;;;;;;;-144.73;99.43;54506.22;4974759;28;20121;-75
2023/03/07 05:06:15;;;;;;;36.83;10.60;;;;;;;-144.73;98.84;54485.69;4975240;28;20106;-75
2023/03/07 05:08:42;;;;;;;26.27;8.82;;;;;;;-144.73;98.51;54465.16;4973658;28;20478;-75
2023/03/07 05:11:08;;;;;;;20.30;8.40;;;;;;;-144.73;97.79;54461.06;4975698;28;20109;-74
2023/03/07 05:13:34;;;;;;;24.60;7.40;;;;;;;-144.73;96.17;54477.47;4974405;28;20196;-74
2023/03/07 05:16:01;;;;;;;23.77;6.37;;;;;;;-144.73;95.85;54481.59;4975376;28;20030;-75
2023/03/07 05:18:28;;;;;;;21.73;6.27;;;;;;;-144.73;95.59;54506.22;4990954;28;20042;-74
2023/03/07 05:20:55;;;;;;;20.27;5.70;;;;;;;-144.73;95.50;54456.97;4992125;28;20046;-74
2023/03/07 05:23:23;;;;;;;19.80;6.03;;;;;;;-144.73;95.32;54436.44;4973078;28;20049;-74
2023/03/07 05:25:49;;;;;;;23.17;5.77;;;;;;;-144.73;95.21;54493.91;4974754;28;20026;-74
2023/03/07 05:28:16;;;;;;;21.27;5.70;;;;;;;-144.73;94.88;54489.81;4974244;28;20129;-75
2023/03/07 05:30:43;;;;;;;24.27;5.30;;;;;;;-144.73;95.29;54516.47;4974595;28;20023;-74
2023/03/07 05:33:09;;;;;;;17.87;4.60;;;;;;;-144.73;94.52;54522.63;4974697;28;20086;-74
2023/03/07 05:35:37;;;;;;;23.73;5.10;;;;;;;-144.73;94.05;54506.22;4974659;28;20033;-74
2023/03/07 05:38:04;;;;;;;17.77;3.80;;;;;;;-144.73;94.21;54489.81;4972560;28;20043;-74
2023/03/07 05:40:31;;;;;;;21.33;4.50;;;;;;;-144.73;93.02;54473.38;4958796;28;20034;-74
2023/03/07 05:42:56;;;;;;;15.37;3.40;;;;;;;-144.73;93.62;54493.91;4974318;28;20085;-74
2023/03/07 05:45:21;;;;;;;16.93;3.17;;;;;;;-144.73;92.68;54489.81;4975024;28;20061;-75
2023/03/07 05:47:47;;;;;;;19.13;4.17;;;;;;;-144.73;92.91;54502.13;4974315;28;20081;-75
2023/03/07 05:50:12;;;;;;;15.83;3.00;;;;;;;-144.73;93.09;54473.38;4974410;28;20030;-73
2023/03/07 05:52:39;;;;;;;16.50;3.50;;;;;;;-144.73;92.25;54508.28;4973903;28;20030;-73
2023/03/07 05:55:05;;;;;;;11.47;3.70;;;;;;;-144.73;91.90;54493.91;4974579;28;20422;-73
2023/03/07 05:57:31;;;;;;;12.13;2.90;;;;;;;-144.73;92.39;54469.28;4974553;28;20475;-73
2023/03/07 05:59:56;;;;;;;14.40;3.10;;;;;;;-144.73;92.64;54438.50;4973950;28;20077;-73
2023/03/07 06:02:22;;;;;;;16.50;3.87;;;;;;;-144.73;91.22;54489.81;4974325;28;20034;-75
2023/03/07 06:04:47;;;;;;;25.93;3.77;;;;;;;-144.73;91.76;54506.22;4975552;28;20030;-73
2023/03/07 06:07:12;;;;;;;23.23;4.23;;;;;;;-144.73;91.52;54514.44;4993991;28;20041;-75
2023/03/07 06:09:38;;;;;;;18.73;2.57;;;;;;;-144.73;91.55;54502.13;4993752;28;20046;-75
2023/03/07 06:12:03;;;;;;;22.43;2.97;;;;;;;-144.73;91.03;54473.38;4994121;28;20031;-74
2023/03/07 06:14:32;;;;;;;29.00;4.40;;;;;;;-144.73;90.18;54514.44;4993349;28;20030;-74
2023/03/07 06:16:58;;;;;;;25.13;3.40;;;;;;;-144.73;90.24;54452.84;4995084;28;20027;-75
2023/03/07 06:19:23;;;;;;;21.53;4.20;;;;;;;-144.73;90.72;54477.47;4996849;28;20045;-75
2023/03/07 06:21:49;;;;;;;14.63;3.10;;;;;;;-144.73;89.61;54506.22;4997536;28;20033;-75
2023/03/07 06:24:14;;;;;;;23.57;3.70;;;;;;;-144.73;90.74;54461.06;4996922;28;20042;-75
2023/03/07 06:26:40;;;;;;;15.73;2.47;;;;;;;-144.73;90.19;54459.00;4997506;28;20061;-74
2023/03/07 06:29:05;;;;;;;24.57;3.00;;;;;;;-144.73;90.05;54502.13;4996720;28;20041;-75
2023/03/07 06:31:30;;;;;;;19.23;3.20;;;;;;;-144.73;89.78;54461.06;4978190;28;20022;-73
2023/03/07 06:33:56;;;;;;;15.83;3.27;;;;;;;-144.73;89.20;54510.31;4976911;28;20045;-73
2023/03/07 06:36:21;;;;;;;24.63;3.10;;;;;;;-144.73;89.33;54469.28;4977665;28;20054;-73
2023/03/07 06:38:47;;;;;;;23.27;3.30;;;;;;;-144.73;90.04;54456.97;4977227;28;20045;-73
2023/03/07 06:41:13;;;;;;;19.70;2.40;;;;;;;-144.73;89.81;54465.16;4977658;28;20022;-73
2023/03/07 06:43:38;;;;;;;11.27;2.77;;;;;;;-144.73;90.39;54514.44;4976828;28;20117;-73
2023/03/07 06:46:04;;;;;;;17.93;2.97;;;;;;;-144.73;89.82;54522.63;4977263;28;20536;-73
2023/03/07 06:48:30;;;;;;;22.33;3.17;;;;;;;-144.73;89.69;54461.06;4976841;28;20034;-73
2023/03/07 06:50:55;;;;;;;31.83;4.30;;;;;;;-144.73;89.79;54456.97;4977163;28;20141;-73
2023/03/07 06:53:21;;;;;;;12.30;2.43;;;;;;;-144.73;89.39;54467.22;4976846;28;20050;-73
2023/03/07 06:55:50;;;;;;;24.57;2.67;;;;;;;-144.73;89.80;54489.81;4977357;28;20049;-73
2023/03/07 06:58:16;;;;;;;24.57;3.93;;;;;;;-144.73;89.24;54469.28;4976899;28;20483;-73
2023/03/07 07:00:41;;;;;;;16.90;2.83;;;;;;;-144.73;89.31;54502.13;4977320;28;20028;-73
2023/03/07 07:03:06;;;;;;;21.47;3.07;;;;;;;-144.73;89.27;54481.59;4976835;28;20371;-73
2023/03/07 07:05:32;;;;;;;21.40;2.20;;;;;;;-144.73;89.17;54506.22;4977165;28;20026;-73
2023/03/07 07:07:57;;;;;;;19.73;2.43;;;;;;;-144.73;89.04;54465.16;4976679;28;20049;-73
2023/03/07 07:10:23;;;;;;;19.97;2.93;;;;;;;-144.73;88.97;54473.38;4977163;28;20120;-73
2023/03/07 07:12:53;;;;;;;16.23;2.83;;;;;;;-144.73;88.96;54469.28;4976531;28;20022;-74
2023/03/07 07:15:18;;;;;;;28.80;3.53;;;;;;;-144.73;88.80;54487.75;4992239;28;20038;-73
2023/03/07 07:17:44;;;;;;;20.73;3.87;;;;;;;-144.73;88.33;54502.13;4976328;28;20054;-72
2023/03/07 07:20:10;;;;;;;12.83;1.97;;;;;;;-144.73;89.10;54477.47;4976592;28;20030;-73
2023/03/07 07:22:35;;;;;;;15.37;3.03;;;;;;;-144.73;88.63;54465.16;4976955;28;20030;-72
2023/03/07 07:25:01;;;;;;;32.50;2.80;;;;;;;-144.73;88.63;54477.47;4976092;28;20122;-73
2023/03/07 07:27:27;;;;;;;16.02;3.20;;;;;;;-144.73;88.63;54481.59;4976110;28;20138;-69
2023/03/07 07:29:52;;;;;;;22.37;3.20;;;;;;;-144.73;88.29;54487.75;4969841;28;20079;-70
2023/03/07 07:32:18;;;;;;;17.90;2.63;;;;;;;-144.73;88.69;54481.59;4964438;28;20068;-71
2023/03/07 07:34:43;;;;;;;13.43;2.10;;;;;;;-144.73;88.43;54473.38;4968638;28;20044;-71
2023/03/07 07:37:09;;;;;;;20.77;2.30;;;;;;;-144.73;88.44;54493.91;4974304;28;20037;-69
2023/03/07 07:39:34;;;;;;;15.90;2.50;;;;;;;-144.73;88.54;54489.81;4984194;28;20124;-70
2023/03/07 07:41:59;;;;;;;15.38;2.45;;;;;;;-144.73;88.07;54463.13;4975176;28;20246;-70
2023/03/07 07:44:29;;;;;;;17.50;2.80;;;;;;;-144.73;87.73;54473.38;4959589;28;20403;-70
2023/03/07 07:46:54;;;;;;;19.53;3.63;;;;;;;-144.73;88.10;54461.06;4971957;28;20403;-70
2023/03/07 07:49:19;;;;;;;19.13;2.27;;;;;;;-144.73;87.48;54444.66;4959596;28;20046;-71
2023/03/07 07:51:45;;;;;;;16.65;3.25;;;;;;;-144.73;87.28;54502.13;4964521;28;20030;-70
2023/03/07 07:54:10;;;;;;;23.53;4.23;;;;;;;-144.73;87.68;54510.31;4954132;28;20047;-69
2023/03/07 07:56:35;;;;;;;26.55;2.75;;;;;;;-144.73;88.53;54489.81;4970097;28;20026;-71
2023/03/07 07:59:01;;;;;;;22.45;2.95;;;;;;;-144.73;87.89;54465.16;4970840;28;20045;-71
2023/03/07 08:01:26;;;;;;;23.02;4.80;;;;;;;-144.73;88.36;54436.44;4971255;28;20040;-71
2023/03/07 08:03:52;;;;;;;26.60;3.63;;;;;;;-144.73;87.86;54487.75;4969319;28;20045;-69
2023/03/07 08:06:19;;;;;;;27.90;3.63;;;;;;;-144.73;88.03;54465.16;4969507;28;20054;-70
2023/03/07 08:08:45;;;;;;;20.67;2.95;;;;;;;-144.73;88.01;54456.97;4971849;28;20038;-70
2023/03/07 08:11:10;;;;;;;19.15;3.65;;;;;;;-144.73;87.32;54481.59;4973025;28;20088;-69
2023/03/07 08:13:35;;;;;;;21.23;3.35;;;;;;;-144.73;86.76;54514.44;4966044;28;20042;-72
2023/03/07 08:16:15;;;;;;;21.00;2.22;;;;;;;-144.73;86.03;54467.22;4972230;28;20035;-70
2023/03/07 08:18:41;;;;;;;24.67;3.08;;;;;;;-144.73;86.63;54477.47;4970238;28;20038;-71
2023/03/07 08:21:07;;;;;;;24.27;3.25;;;;;;;-144.73;88.62;54467.22;4973512;28;20034;-70
2023/03/07 08:23:34;;;;;;;35.97;4.35;;;;;;;-144.73;92.98;54469.28;4982702;28;20038;-70
2023/03/07 08:26:08;;;;;;;31.43;3.57;;;;;;;-144.73;94.42;54479.53;4968885;28;20121;-68
2023/03/07 08:28:35;;;;;;;23.13;3.73;;;;;;;-144.73;98.82;54454.91;4969280;28;20046;-68
2023/03/07 08:31:13;;;;;;;28.43;3.37;;;;;;;-144.73;100.00;54459.00;4969689;28;20081;-68
2023/03/07 08:33:39;;;;;;;25.57;3.27;;;;;;;-144.73;100.00;54481.59;4975972;28;20034;-68
2023/03/07 08:36:05;;;;;;;26.10;3.67;;;;;;;-144.73;100.00;54510.31;4981193;28;20037;-68
2023/03/07 08:38:31;;;;;;;23.90;3.77;;;;;;;-144.73;100.00;54485.69;4980771;28;20095;-69
2023/03/07 08:41:04;;;;;;;20.70;3.40;;;;;;;-144.73;96.82;54498.00;4986801;28;20033;-69
2023/03/07 08:43:31;;;;;;;20.90;3.50;;;;;;;-144.73;97.52;54477.47;4967084;28;20034;-69
2023/03/07 08:45:57;;;;;;;28.00;4.13;;;;;;;-144.73;95.54;54465.16;4982581;28;20076;-69
2023/03/07 08:48:23;;;;;;;20.83;3.87;;;;;;;-144.73;96.04;54498.00;4971032;28;20031;-69
2023/03/07 08:50:48;;;;;;;24.93;3.43;;;;;;;-144.73;95.51;54452.84;4980162;28;20132;-69
2023/03/07 08:53:14;;;;;;;23.80;4.03;;;;;;;-144.73;94.72;54493.91;4983873;28;20482;-69
2023/03/07 08:55:42;;;;;;;25.67;4.10;;;;;;;-144.73;93.35;54483.66;4978701;28;20428;-70
2023/03/07 08:58:08;;;;;;;30.70;5.23;;;;;;;-144.73;91.91;54465.16;4990398;28;20117;-70
2023/03/07 09:00:34;;;;;;;21.17;3.60;;;;;;;-144.73;93.28;54471.31;4980572;28;20026;-69
2023/03/07 09:03:00;;;;;;;27.37;3.80;;;;;;;-144.73;93.48;54452.84;4971347;28;20031;-69
2023/03/07 09:05:27;;;;;;;27.87;3.80;;;;;;;-144.73;94.12;54456.97;4981126;28;20110;-69
2023/03/07 09:07:53;;;;;;;23.13;3.80;;;;;;;-144.73;97.54;54502.13;4981923;28;20018;-69
2023/03/07 09:10:19;;;;;;;17.23;3.47;;;;;;;-144.73;98.41;54473.38;4975775;28;20030;-69
2023/03/07 09:12:45;;;;;;;34.90;5.17;;;;;;;-144.73;99.33;54493.91;4975065;28;20049;-70
2023/03/07 09:15:11;;;;;;;21.83;3.63;;;;;;;-144.73;98.70;54493.91;4970498;28;20030;-70
2023/03/07 09:17:36;;;;;;;34.13;5.17;;;;;;;-144.73;99.30;54481.59;4974353;28;20548;-70
2023/03/07 09:20:03;;;;;;;37.77;3.53;;;;;;;-144.73;98.86;54469.28;4975361;28;20041;-70
2023/03/07 09:22:28;;;;;;;24.23;3.57;;;;;;;-144.73;96.76;54502.13;4973434;28;20018;-70
2023/03/07 09:24:54;;;;;;;31.77;4.83;;;;;;;-144.73;97.11;54469.28;4969095;28;20042;-69
2023/03/07 09:27:20;;;;;;;23.37;3.67;;;;;;;-144.73;96.43;54461.06;4976274;28;20030;-69
2023/03/07 09:29:46;;;;;;;19.77;3.37;;;;;;;-144.73;96.61;54465.16;4969651;28;20053;-69
2023/03/07 09:32:11;;;;;;;24.23;4.10;;;;;;;-144.73;97.15;54485.69;4971727;28;20061;-69
2023/03/07 09:34:37;;;;;;;22.50;3.70;;;;;;;-144.73;98.10;54514.44;4984008;28;20072;-68
2023/03/07 09:37:02;;;;;;;30.00;5.95;;;;;;;-144.73;97.74;54530.84;4978445;28;20026;-69
2023/03/07 09:39:28;;;;;;;18.13;3.43;;;;;;;-144.73;97.07;54448.75;4977392;28;20038;-68
2023/03/07 09:42:18;;;;;;;22.93;3.53;;;;;;;-144.73;94.94;54485.69;4975396;28;20089;-68
2023/03/07 09:45:33;;;;;;;20.77;3.47;;;;;;;-144.73;94.23;54489.81;4966302;28;20123;-69
2023/03/07 09:48:28;;;;;;;22.37;4.83;;;;;;;-144.73;93.30;54489.81;4909601;29;20051;-68
2023/03/07 09:50:58;;;;;;;23.60;3.55;;;;;;;-144.73;92.41;54452.84;4965561;28;20050;-69
2023/03/07 09:53:36;;;;;;;17.63;3.30;;;;;;;-144.73;91.50;54493.91;4982620;28;20400;-69
2023/03/07 09:56:07;;;;;;;22.33;3.67;;;;;;;-144.73;91.23;54454.91;4979426;28;20295;-69
2023/03/07 09:58:36;;;;;;;31.40;3.00;;;;;;;-144.73;89.87;54506.22;4969431;28;20029;-69
2023/03/07 10:01:02;;;;;;;20.93;3.30;;;;;;;-144.73;88.17;54489.81;4982393;28;20029;-68
2023/03/07 10:03:45;;;;;;;27.10;4.03;;;;;;;-144.73;87.39;54481.59;4973622;28;20120;-69
2023/03/07 10:06:23;;;;;;;22.00;2.60;;;;;;;-144.73;85.88;54481.59;4976443;28;20112;-68
2023/03/07 10:08:50;;;;;;;22.35;3.47;;;;;;;-144.73;84.48;54473.38;4977510;28;20045;-68
2023/03/07 10:11:37;;;;;;;27.33;3.35;;;;;;;-144.73;83.93;54465.16;4974849;28;20030;-70
2023/03/07 10:14:26;;;;;;;24.08;2.95;;;;;;;-144.73;83.63;54489.81;4972219;28;20042;-69
2023/03/07 10:17:03;;;;;;;19.73;3.10;;;;;;;-144.73;83.76;54518.53;4972290;28;20033;-69
2023/03/07 10:19:38;;;;;;;18.33;2.03;;;;;;;-144.73;83.29;54493.91;4987723;28;20039;-69
2023/03/07 10:22:28;;;;;;;20.42;2.25;;;;;;;-144.73;83.36;54514.44;4984055;28;20112;-70
2023/03/07 10:25:24;;;;;;;15.50;3.20;;;;;;;-144.73;80.29;54473.38;4977725;28;20026;-69
2023/03/07 10:27:53;;;;;;;13.32;1.88;;;;;;;-144.73;78.52;54456.97;4976905;28;20066;-70
2023/03/07 10:30:20;;;;;;;12.13;2.80;;;;;;;-144.73;76.95;54508.28;4977544;28;20018;-70
2023/03/07 10:32:48;;;;;;;26.10;3.93;;;;;;;-144.73;77.69;54448.75;4974429;28;20014;-70
2023/03/07 10:35:20;;;;;;;13.53;2.10;;;;;;;-144.73;80.41;54459.00;4982240;28;20116;-70
2023/03/07 10:37:50;;;;;;;9.60;2.50;;;;;;;-144.73;81.33;54440.53;4973531;28;20020;-70
2023/03/07 10:40:22;;;;;;;16.03;2.87;;;;;;;-144.73;84.15;54463.13;4977708;28;20041;-69
2023/03/07 10:42:47;;;;;;;22.25;2.78;;;;;;;-144.73;85.08;54465.16;4979771;28;20080;-70
2023/03/07 10:45:14;;;;;;;22.50;2.10;;;;;;;-144.73;86.60;54452.84;4971113;28;20026;-70
2023/03/07 10:47:39;;;;;;;20.80;2.57;;;;;;;-144.73;86.46;54473.38;4994143;28;20498;-70
2023/03/07 10:50:30;;;;;;;11.67;2.47;;;;;;;-144.73;86.60;54446.69;4993923;28;20031;-70
2023/03/07 10:53:02;;;;;;;20.90;3.13;;;;;;;-144.73;86.43;54465.16;4973689;28;20018;-70
2023/03/07 10:55:33;;;;;;;12.77;2.53;;;;;;;-144.73;86.07;54459.00;4987378;28;20029;-70
2023/03/07 10:58:24;;;;;;;9.15;2.22;;;;;;;-144.73;85.30;54485.69;4994585;28;20038;-71
2023/03/07 11:01:05;;;;;;;11.95;2.60;;;;;;;-144.73;84.33;54461.06;4995527;28;20016;-71
2023/03/07 11:03:37;;;;;;;26.88;3.70;;;;;;;-144.73;83.65;54450.81;4989543;28;20109;-71
2023/03/07 11:06:03;;;;;;;29.52;4.03;;;;;;;-144.73;82.83;54493.91;4988821;28;20032;-71
2023/03/07 11:08:34;;;;;;;24.47;3.07;;;;;;;-144.73;82.50;54473.38;4994921;28;20109;-71
2023/03/07 11:11:01;;;;;;;18.77;2.80;;;;;;;-144.73;82.58;54448.75;4975141;28;20028;-71